MetarTest
Metar LSZC 181950Z VRB02KT 9999 -RA FEW045 BKN050 13/12 Q1015
Taf LSME 181625Z 1817/1923 32005KT 9999 FEW070 PROB40 TEMPO 1817/1822 27010KT SHRA SCT050TCU PROB30 TEMPO 1817/1818 27018G30KT 4500 TSRA SCT040CB PROB40 1900/1906 6000 MIFG PROB30 1906/1909 CAVOK PROB30 TEMPO 1914/1917 SHRA FEW070TCU
Metar LSZH 181950Z 16003KT 9999 FEW050 12/11 Q1014 TEMPO SHRA
Taf LSZH 182025Z 1821/2003 VRB02KT 9999 FEW050 TX22/1915Z TN09/1904Z TEMPO 1821/1822 SHRA SCT050TCU PROB40 1902/1906 6000 MIFG NSC PROB30 1903/1906 3000 BCFG TEMPO 1906/1912 CAVOK PROB40 TEMPO 1911/1917 31008KT
QNH LSZC 1015
Privacy Settings
We use cookies to enhance your experience while using our website. If you are using our Services via a browser you can restrict, block or remove cookies through your web browser settings. We also use content and scripts from third parties that may use tracking technologies. You can selectively provide your consent below to allow such third party embeds. For complete information about the cookies we use, data we collect and how we process them, please check our Privacy Policy
Youtube
Consent to display content from - Youtube
Vimeo
Consent to display content from - Vimeo
Google Maps
Consent to display content from - Google